createdAt,value
2018-03-23T00:00:58.686Z,21.80
2018-03-23T00:03:26.827Z,21.48
2018-03-23T00:05:55.029Z,22.10
2018-03-23T00:08:23.143Z,23.70
2018-03-23T00:10:51.266Z,23.80
2018-03-23T00:13:19.408Z,20.52
2018-03-23T00:15:47.516Z,22.27
2018-03-23T00:18:15.698Z,24.00
2018-03-23T00:20:43.806Z,21.53
2018-03-23T00:23:11.934Z,23.60
2018-03-23T00:25:40.083Z,22.55
2018-03-23T00:28:08.260Z,25.47
2018-03-23T00:30:36.401Z,22.53
2018-03-23T00:33:04.519Z,22.80
2018-03-23T00:35:32.785Z,23.70
2018-03-23T00:38:00.901Z,22.93
2018-03-23T00:40:29.044Z,24.20
2018-03-23T00:42:57.164Z,24.23
2018-03-23T00:45:25.290Z,24.55
2018-03-23T00:47:53.430Z,24.43
2018-03-23T00:50:21.572Z,25.57
2018-03-23T00:52:49.688Z,25.60
2018-03-23T00:55:17.816Z,25.75
2018-03-23T00:57:45.949Z,24.37
2018-03-23T01:00:14.126Z,24.37
2018-03-23T01:02:42.268Z,25.20
2018-03-23T01:05:10.390Z,26.07
2018-03-23T01:07:38.507Z,27.37
2018-03-23T01:10:06.716Z,26.30
2018-03-23T01:12:34.846Z,25.50
2018-03-23T01:15:03.886Z,24.67
2018-03-23T01:17:32.077Z,25.93
2018-03-23T01:20:00.187Z,24.43
2018-03-23T01:22:28.319Z,25.40
2018-03-23T01:24:56.449Z,24.47
2018-03-23T01:27:24.634Z,25.17
2018-03-23T01:29:52.784Z,26.27
2018-03-23T01:32:20.899Z,28.90
2018-03-23T01:34:49.029Z,24.80
2018-03-23T01:37:17.149Z,25.63
2018-03-23T01:39:45.264Z,28.50
2018-03-23T01:42:13.386Z,25.87
2018-03-23T01:44:41.517Z,26.03
2018-03-23T01:47:09.635Z,25.00
2018-03-23T01:49:37.761Z,27.93
2018-03-23T01:52:05.886Z,27.87
2018-03-23T01:54:34.020Z,28.73
2018-03-23T01:57:02.151Z,26.33
2018-03-23T01:59:30.370Z,26.58
2018-03-23T02:01:58.594Z,25.98
2018-03-23T02:04:26.744Z,26.83
2018-03-23T02:06:54.983Z,25.00
2018-03-23T02:09:23.100Z,27.43
2018-03-23T02:11:51.228Z,25.43
2018-03-23T02:14:19.345Z,24.93
2018-03-23T02:16:47.478Z,25.43
2018-03-23T02:19:15.592Z,25.20
2018-03-23T02:21:43.729Z,26.17
2018-03-23T02:24:11.882Z,26.30
2018-03-23T02:26:39.983Z,24.27
2018-03-23T02:29:08.116Z,23.65
2018-03-23T02:31:36.701Z,24.93
2018-03-23T02:34:04.816Z,23.73
2018-03-23T02:36:33.283Z,26.23
2018-03-23T02:39:01.412Z,23.40
2018-03-23T02:41:29.519Z,26.12
2018-03-23T02:43:57.654Z,26.33
2018-03-23T02:46:25.773Z,24.27
2018-03-23T02:48:53.897Z,23.97
2018-03-23T02:51:22.072Z,24.30
2018-03-23T02:53:50.191Z,24.53
2018-03-23T02:56:18.318Z,23.03
2018-03-23T02:58:46.438Z,24.40
2018-03-23T03:01:14.568Z,23.55
2018-03-23T03:03:42.709Z,23.35
2018-03-23T03:06:10.868Z,23.73
2018-03-23T03:08:38.994Z,24.07
2018-03-23T03:11:07.151Z,22.13
2018-03-23T03:13:35.279Z,22.85
2018-03-23T03:16:03.408Z,22.70
2018-03-23T03:18:31.530Z,23.53
2018-03-23T03:20:59.650Z,24.13
2018-03-23T03:23:27.788Z,25.65
2018-03-23T03:25:55.914Z,26.03
2018-03-23T03:28:24.033Z,24.23
2018-03-23T03:30:52.169Z,25.63
2018-03-23T03:33:20.338Z,25.50
2018-03-23T03:35:48.519Z,24.60
2018-03-23T03:38:16.647Z,26.03
2018-03-23T03:40:44.769Z,25.07
2018-03-23T03:43:12.909Z,27.80
2018-03-23T03:45:41.034Z,26.20
2018-03-23T03:48:09.184Z,26.90
2018-03-23T03:50:37.322Z,26.23
2018-03-23T03:53:05.478Z,29.10
2018-03-23T03:55:33.612Z,29.30
2018-03-23T03:58:01.731Z,27.70
2018-03-23T04:00:29.852Z,28.40
2018-03-23T04:02:57.990Z,30.42
2018-03-23T04:05:26.113Z,30.77
2018-03-23T04:07:54.243Z,30.23
2018-03-23T04:10:22.352Z,30.40
2018-03-23T04:12:50.554Z,28.52
2018-03-23T04:15:18.682Z,30.17
2018-03-23T04:17:46.820Z,31.27
2018-03-23T04:23:36.168Z,30.60
2018-03-23T04:26:04.305Z,30.70
2018-03-23T04:29:03.015Z,31.10
2018-03-23T04:31:38.365Z,32.60
2018-03-23T04:34:21.763Z,30.67
2018-03-23T04:36:49.893Z,31.47
2018-03-23T04:39:48.726Z,31.57
2018-03-23T04:42:23.929Z,31.92
2018-03-23T04:44:52.074Z,31.57
2018-03-23T04:47:20.278Z,30.83
2018-03-23T04:49:48.386Z,32.92
2018-03-23T04:52:16.540Z,30.30
2018-03-23T04:54:44.732Z,33.20
2018-03-23T04:57:12.864Z,34.80
2018-03-23T04:59:41.021Z,32.53
2018-03-23T05:02:09.151Z,33.40
2018-03-23T05:04:37.291Z,31.73
2018-03-23T05:07:05.515Z,32.70
2018-03-23T05:09:33.638Z,31.70
2018-03-23T05:12:01.784Z,33.17
2018-03-23T05:14:29.904Z,31.90
2018-03-23T05:16:58.094Z,33.57
2018-03-23T05:19:26.226Z,32.33
2018-03-23T05:21:54.357Z,31.10
2018-03-23T05:24:22.480Z,33.90
2018-03-23T05:26:50.622Z,32.40
2018-03-23T05:29:18.745Z,33.03
2018-03-23T05:31:46.915Z,32.97
2018-03-23T05:34:15.036Z,35.20
2018-03-23T05:36:43.188Z,35.30
2018-03-23T05:39:11.309Z,34.20
2018-03-23T05:41:39.441Z,33.00
2018-03-23T05:44:07.558Z,32.93
2018-03-23T05:46:36.111Z,35.07
2018-03-23T05:49:04.234Z,33.20
2018-03-23T05:51:32.366Z,33.00
2018-03-23T05:54:00.473Z,32.50
2018-03-23T05:56:28.621Z,32.70
2018-03-23T05:58:56.764Z,32.63
2018-03-23T06:01:24.940Z,31.15
2018-03-23T06:03:53.056Z,33.47
2018-03-23T06:06:21.168Z,34.23
2018-03-23T06:08:49.312Z,32.17
2018-03-23T06:11:17.450Z,33.37
2018-03-23T06:13:45.587Z,31.60
2018-03-23T06:16:13.709Z,32.03
2018-03-23T06:18:41.837Z,31.90
2018-03-23T06:21:10.825Z,33.95
2018-03-23T06:23:38.937Z,33.23
2018-03-23T06:26:07.063Z,35.80
2018-03-23T06:28:35.207Z,34.92
2018-03-23T06:31:03.319Z,33.50
2018-03-23T06:33:31.458Z,34.53
2018-03-23T06:35:59.636Z,34.50
2018-03-23T06:38:27.770Z,34.10
2018-03-23T06:40:55.980Z,33.13
2018-03-23T06:43:24.110Z,32.90
2018-03-23T06:45:52.237Z,33.00
2018-03-23T06:48:20.376Z,31.10
2018-03-23T06:50:48.499Z,32.43
2018-03-23T06:53:16.672Z,31.42
2018-03-23T06:55:44.936Z,33.27
2018-03-23T06:58:13.098Z,30.30
2018-03-23T07:00:41.226Z,30.17
2018-03-23T07:03:09.388Z,31.33
2018-03-23T07:05:37.518Z,29.73
2018-03-23T07:08:05.638Z,28.17
2018-03-23T07:10:33.785Z,30.43
2018-03-23T07:13:01.893Z,28.23
2018-03-23T07:15:30.030Z,27.97
2018-03-23T07:17:58.193Z,28.70
2018-03-23T07:20:26.372Z,27.90
2018-03-23T07:22:54.488Z,28.50
2018-03-23T07:25:22.680Z,30.27
2018-03-23T07:27:51.280Z,29.70
2018-03-23T07:30:19.416Z,30.53
2018-03-23T07:32:47.540Z,28.90
2018-03-23T07:35:15.676Z,30.80
2018-03-23T07:37:43.807Z,29.83
2018-03-23T07:40:11.935Z,31.67
2018-03-23T07:42:40.499Z,30.83
2018-03-23T07:45:08.632Z,31.20
2018-03-23T07:47:36.763Z,31.27
2018-03-23T07:50:04.896Z,31.67
2018-03-23T07:52:33.058Z,32.70
2018-03-23T07:55:01.195Z,32.73
2018-03-23T07:57:29.340Z,31.70
2018-03-23T07:59:57.486Z,31.42
2018-03-23T08:02:25.651Z,34.10
2018-03-23T08:04:53.787Z,32.07
2018-03-23T08:07:21.942Z,31.80
2018-03-23T08:09:50.924Z,34.50
2018-03-23T08:12:19.046Z,33.38
2018-03-23T08:14:47.200Z,31.77
2018-03-23T08:17:15.604Z,32.33
2018-03-23T08:19:43.741Z,32.50
2018-03-23T08:22:11.877Z,31.27
2018-03-23T08:24:40.013Z,32.90
2018-03-23T08:27:08.193Z,30.93
2018-03-23T08:29:36.327Z,33.97
2018-03-23T08:32:04.471Z,32.67
2018-03-23T08:34:32.583Z,31.70
2018-03-23T08:37:00.704Z,33.63
2018-03-23T08:39:28.824Z,34.53
2018-03-23T08:41:56.960Z,32.20
2018-03-23T08:44:25.148Z,33.17
2018-03-23T08:46:53.278Z,35.07
2018-03-23T08:49:21.397Z,31.75
2018-03-23T08:51:49.515Z,34.80
2018-03-23T08:54:17.674Z,33.60
2018-03-23T08:56:45.779Z,34.37
2018-03-23T08:59:13.952Z,34.60
2018-03-23T09:01:42.068Z,33.78
2018-03-23T09:04:10.318Z,33.03
2018-03-23T09:06:38.498Z,35.17
2018-03-23T09:09:06.748Z,31.90
2018-03-23T09:11:34.886Z,31.83
2018-03-23T09:14:02.999Z,32.13
2018-03-23T09:16:31.113Z,34.53
2018-03-23T09:18:59.227Z,32.73
2018-03-23T09:21:27.347Z,33.27
2018-03-23T09:23:55.475Z,34.83
2018-03-23T09:26:23.592Z,32.67
2018-03-23T09:28:51.715Z,32.30
2018-03-23T09:31:19.840Z,34.08
2018-03-23T09:33:47.972Z,32.43
2018-03-23T09:36:16.092Z,32.77
2018-03-23T09:38:44.202Z,31.57
2018-03-23T09:41:12.385Z,32.97
2018-03-23T09:43:40.507Z,33.27
2018-03-23T09:46:08.643Z,33.78
2018-03-23T09:48:36.802Z,31.60
2018-03-23T09:51:04.903Z,32.50
2018-03-23T09:53:33.047Z,32.95
2018-03-23T09:56:01.176Z,32.17
2018-03-23T09:58:29.312Z,33.60
2018-03-23T10:00:57.440Z,29.40
2018-03-23T10:03:25.570Z,29.97
2018-03-23T10:05:53.710Z,31.50
2018-03-23T10:08:21.838Z,29.53
2018-03-23T10:10:49.971Z,27.10
2018-03-23T10:13:18.163Z,29.23
2018-03-23T10:15:46.335Z,28.53
2018-03-23T10:18:14.451Z,29.80
2018-03-23T10:20:42.672Z,31.73
2018-03-23T10:23:10.747Z,30.83
2018-03-23T10:25:38.860Z,29.97
2018-03-23T10:28:06.990Z,30.73
2018-03-23T10:30:35.144Z,32.53
2018-03-23T10:33:03.266Z,30.03
2018-03-23T10:35:31.432Z,31.80
2018-03-23T10:37:59.519Z,32.20
2018-03-23T10:40:27.635Z,34.33
2018-03-23T10:42:55.754Z,32.03
2018-03-23T10:45:23.875Z,32.30
2018-03-23T10:47:52.004Z,32.23
2018-03-23T10:50:20.122Z,31.53
2018-03-23T10:52:48.264Z,34.47
2018-03-23T10:55:16.453Z,31.83
2018-03-23T10:57:44.561Z,32.07
2018-03-23T11:00:13.558Z,35.57
2018-03-23T11:02:56.729Z,32.93
2018-03-23T11:05:24.837Z,34.15
2018-03-23T11:07:53.066Z,32.40
2018-03-23T11:10:21.193Z,32.23
2018-03-23T11:12:49.351Z,32.80
2018-03-23T11:15:17.488Z,33.00
2018-03-23T11:17:45.679Z,31.23
2018-03-23T11:20:13.890Z,31.03
2018-03-23T11:22:42.011Z,30.57
2018-03-23T11:25:10.207Z,30.60
2018-03-23T11:27:38.353Z,30.07
2018-03-23T11:30:06.527Z,32.07
2018-03-23T11:32:34.708Z,31.20
2018-03-23T11:35:02.872Z,31.30
2018-03-23T11:37:31.024Z,31.50
2018-03-23T11:39:59.152Z,31.30
2018-03-23T11:42:27.292Z,31.83
2018-03-23T11:44:55.426Z,29.40
2018-03-23T11:47:23.566Z,29.52
2018-03-23T11:49:51.715Z,29.63
2018-03-23T11:52:19.833Z,27.50
2018-03-23T11:54:47.987Z,27.93
2018-03-23T11:57:16.875Z,28.38
2018-03-23T11:59:45.046Z,28.83
2018-03-23T12:02:13.186Z,26.90
2018-03-23T12:04:41.372Z,23.80
2018-03-23T12:07:09.508Z,24.80
2018-03-23T12:09:37.685Z,23.90
2018-03-23T12:12:05.879Z,23.00
2018-03-23T12:14:34.043Z,23.73
2018-03-23T12:17:02.216Z,22.73
2018-03-23T12:19:31.163Z,23.70
2018-03-23T12:21:59.343Z,21.50
2018-03-23T12:24:27.471Z,21.47
2018-03-23T12:26:56.254Z,20.37
2018-03-23T12:29:25.309Z,21.25
2018-03-23T12:31:53.542Z,22.60
2018-03-23T12:34:21.671Z,21.67
2018-03-23T12:36:49.838Z,22.03
2018-03-23T12:39:18.023Z,21.80
2018-03-23T12:41:46.163Z,22.83
2018-03-23T12:44:14.336Z,22.03
2018-03-23T12:46:42.478Z,22.07
2018-03-23T12:49:11.153Z,23.42
2018-03-23T12:51:39.669Z,21.60
2018-03-23T12:54:08.220Z,20.13
2018-03-23T12:56:36.386Z,21.10
2018-03-23T12:59:05.428Z,23.02
2018-03-23T13:01:38.184Z,21.60
2018-03-23T13:04:06.894Z,21.70
2018-03-23T13:06:35.010Z,21.45
2018-03-23T13:09:03.166Z,22.50
2018-03-23T13:11:31.286Z,22.00
2018-03-23T13:13:59.786Z,21.80
2018-03-23T13:16:27.915Z,20.73
2018-03-23T13:18:59.347Z,21.57
2018-03-23T13:21:28.275Z,22.37
2018-03-23T13:24:03.419Z,20.83
2018-03-23T13:26:31.573Z,22.53
2018-03-23T13:28:59.699Z,19.90
2018-03-23T13:31:27.893Z,21.70
2018-03-23T13:33:56.024Z,21.73
2018-03-23T13:36:24.232Z,20.57
2018-03-23T13:38:52.413Z,22.15
2018-03-23T13:41:20.530Z,21.75
2018-03-23T13:43:48.732Z,21.93
2018-03-23T13:46:17.475Z,21.80
2018-03-23T13:48:45.831Z,22.33
2018-03-23T13:51:13.971Z,20.60
2018-03-23T13:53:42.153Z,21.83
2018-03-23T13:56:10.321Z,20.40
2018-03-23T13:58:43.967Z,20.40
2018-03-23T14:01:17.673Z,20.27
2018-03-23T14:03:45.843Z,19.63
2018-03-23T14:06:13.987Z,20.47
2018-03-23T14:08:42.136Z,18.90
2018-03-23T14:11:10.292Z,19.17
2018-03-23T14:13:38.427Z,20.20
2018-03-23T14:16:06.678Z,19.70
2018-03-23T14:18:34.848Z,21.13
2018-03-23T14:21:02.957Z,18.80
2018-03-23T14:23:31.193Z,19.83
2018-03-23T14:25:59.340Z,20.63
2018-03-23T14:28:27.485Z,20.80
2018-03-23T14:30:55.642Z,19.87
2018-03-23T14:33:23.828Z,21.58
2018-03-23T14:35:52.249Z,20.37
2018-03-23T14:38:20.438Z,21.47
2018-03-23T14:40:48.557Z,21.47
2018-03-23T14:43:16.703Z,26.40
2018-03-23T14:45:44.843Z,23.83
2018-03-23T14:48:12.977Z,25.30
2018-03-23T14:50:42.132Z,26.40
2018-03-23T14:53:10.270Z,29.93
2018-03-23T14:55:38.944Z,30.53
2018-03-23T14:58:07.573Z,28.23
2018-03-23T15:00:35.700Z,27.57
2018-03-23T15:03:03.827Z,26.63
2018-03-23T15:05:32.037Z,25.60
2018-03-23T15:08:01.234Z,24.67
2018-03-23T15:10:29.386Z,25.73
2018-03-23T15:12:57.520Z,26.67
2018-03-23T15:15:25.696Z,25.93
2018-03-23T15:17:53.906Z,27.93
2018-03-23T15:20:22.046Z,26.73
2018-03-23T15:22:50.200Z,27.93
2018-03-23T15:25:18.363Z,25.77
2018-03-23T15:27:46.499Z,26.10
2018-03-23T15:30:14.635Z,27.13
2018-03-23T15:32:42.775Z,26.77
2018-03-23T15:35:10.956Z,27.40
2018-03-23T15:37:39.093Z,26.50
2018-03-23T15:40:07.263Z,26.50
2018-03-23T15:42:35.393Z,27.73
2018-03-23T15:45:03.562Z,27.67
2018-03-23T15:47:31.685Z,27.80
2018-03-23T15:49:59.831Z,26.83
2018-03-23T15:52:28.007Z,28.47
2018-03-23T15:54:56.141Z,26.93
2018-03-23T15:57:24.302Z,26.83
2018-03-23T15:59:52.425Z,26.30
2018-03-23T16:02:20.567Z,26.83
2018-03-23T16:04:50.761Z,25.90
2018-03-23T16:07:18.899Z,27.52
2018-03-23T16:09:47.132Z,26.60
2018-03-23T16:12:15.328Z,27.57
2018-03-23T16:14:43.546Z,25.17
2018-03-23T16:17:11.716Z,26.20
2018-03-23T16:19:39.823Z,25.80
2018-03-23T16:22:08.002Z,26.57
2018-03-23T16:24:38.127Z,26.58
2018-03-23T16:27:06.470Z,26.23
2018-03-23T16:29:34.634Z,26.83
2018-03-23T16:32:02.824Z,26.57
2018-03-23T16:34:30.927Z,27.37
2018-03-23T16:36:59.095Z,25.20
2018-03-23T16:39:27.269Z,27.65
2018-03-23T16:41:56.599Z,26.70
2018-03-23T16:44:24.742Z,26.47
2018-03-23T16:46:52.884Z,30.50
2018-03-23T16:49:21.074Z,35.80
2018-03-23T16:51:49.188Z,33.73
2018-03-23T16:54:17.344Z,32.90
2018-03-23T16:56:45.488Z,33.73
2018-03-23T16:59:13.663Z,36.30
2018-03-23T17:01:42.617Z,40.43
2018-03-23T17:04:10.771Z,34.40
2018-03-23T17:06:39.023Z,37.13
2018-03-23T17:09:07.908Z,36.95
2018-03-23T17:11:36.026Z,36.37
2018-03-23T17:14:04.192Z,33.73
2018-03-23T17:16:32.324Z,33.57
2018-03-23T17:19:00.472Z,38.00
2018-03-23T17:21:28.595Z,36.85
2018-03-23T17:23:56.751Z,35.97
2018-03-23T17:26:25.711Z,33.15
2018-03-23T17:28:54.036Z,33.90
2018-03-23T17:31:22.188Z,35.72
2018-03-23T17:33:50.325Z,33.23
2018-03-23T17:36:18.560Z,36.57
2018-03-23T17:38:46.697Z,35.37
2018-03-23T17:41:19.483Z,35.63
2018-03-23T17:43:47.854Z,34.30
2018-03-23T17:46:15.992Z,34.87
2018-03-23T17:48:44.105Z,36.77
2018-03-23T17:51:12.268Z,33.33
2018-03-23T17:53:40.430Z,36.87
2018-03-23T17:56:08.548Z,34.60
2018-03-23T17:58:36.688Z,40.00
2018-03-23T18:01:04.838Z,35.90
2018-03-23T18:03:32.983Z,34.53
2018-03-23T18:06:01.123Z,39.90
2018-03-23T18:08:29.243Z,38.63
2018-03-23T18:10:57.372Z,34.97
2018-03-23T18:13:25.632Z,38.65
2018-03-23T18:15:53.760Z,36.67
2018-03-23T18:18:21.908Z,42.20
2018-03-23T18:20:50.024Z,35.17
2018-03-23T18:23:18.217Z,36.90
2018-03-23T18:25:46.451Z,36.17
2018-03-23T18:28:14.562Z,34.83
2018-03-23T18:30:42.696Z,35.03
2018-03-23T18:33:10.823Z,35.27
2018-03-23T18:35:38.939Z,33.50
2018-03-23T18:38:07.672Z,35.70
2018-03-23T18:40:35.817Z,35.77
2018-03-23T18:43:03.988Z,35.83
2018-03-23T18:45:32.159Z,33.80
2018-03-23T18:48:00.269Z,35.37
2018-03-23T18:50:28.399Z,37.63
2018-03-23T18:52:56.550Z,37.30
2018-03-23T18:55:24.727Z,36.03
2018-03-23T18:57:52.931Z,40.30
2018-03-23T19:00:21.069Z,37.90
2018-03-23T19:02:49.196Z,39.00
2018-03-23T19:05:17.340Z,43.50
2018-03-23T19:07:45.596Z,38.08
2018-03-23T19:10:13.750Z,38.80
2018-03-23T19:12:41.908Z,40.77
2018-03-23T19:15:10.417Z,36.27
2018-03-23T19:17:38.972Z,35.40
2018-03-23T19:20:07.111Z,35.67
2018-03-23T19:22:35.243Z,34.83
2018-03-23T19:25:03.405Z,37.33
2018-03-23T19:27:31.575Z,37.40
2018-03-23T19:29:59.706Z,36.13
2018-03-23T19:32:31.036Z,38.30
2018-03-23T19:35:00.397Z,36.57
2018-03-23T19:37:44.724Z,35.70
2018-03-23T19:40:15.955Z,36.77
2018-03-23T19:42:44.085Z,34.63
2018-03-23T19:45:12.269Z,36.27
2018-03-23T19:47:40.525Z,36.70
2018-03-23T19:50:09.744Z,34.83
2018-03-23T19:52:37.935Z,36.13
2018-03-23T19:55:06.156Z,36.03
2018-03-23T19:57:34.385Z,36.70
2018-03-23T20:00:02.512Z,37.60
2018-03-23T20:02:30.693Z,37.42
2018-03-23T20:04:58.844Z,36.47
2018-03-23T20:07:27.338Z,38.80
2018-03-23T20:09:55.485Z,41.00
2018-03-23T20:12:24.447Z,37.03
2018-03-23T20:14:52.603Z,37.60
2018-03-23T20:17:26.237Z,50.20
2018-03-23T20:19:54.395Z,42.23
2018-03-23T20:22:22.527Z,42.40
2018-03-23T20:24:50.835Z,57.87
2018-03-23T20:27:24.510Z,57.80
2018-03-23T20:29:52.650Z,72.93
2018-03-23T20:32:26.363Z,47.43
2018-03-23T20:34:54.621Z,44.60
2018-03-23T20:37:23.615Z,39.78
2018-03-23T20:39:51.764Z,39.47
2018-03-23T20:42:19.919Z,37.10
2018-03-23T20:44:48.046Z,39.77
2018-03-23T20:47:16.154Z,38.15
2018-03-23T20:49:44.279Z,36.00
2018-03-23T20:52:12.405Z,38.73
2018-03-23T20:54:40.529Z,37.90
2018-03-23T20:57:08.640Z,36.90
2018-03-23T20:59:36.755Z,39.27
2018-03-23T21:02:04.887Z,39.60
2018-03-23T21:04:33.153Z,36.70
2018-03-23T21:07:01.292Z,38.30
2018-03-23T21:09:29.403Z,39.70
2018-03-23T21:11:57.532Z,39.20
2018-03-23T21:14:25.655Z,40.90
2018-03-23T21:16:53.778Z,42.00
2018-03-23T21:19:21.945Z,37.30
2018-03-23T21:21:50.069Z,39.27
2018-03-23T21:24:18.217Z,38.73
2018-03-23T21:26:46.361Z,38.27
2018-03-23T21:29:14.482Z,38.03
2018-03-23T21:31:42.607Z,39.27
2018-03-23T21:34:10.748Z,38.07
2018-03-23T21:36:38.877Z,37.63
2018-03-23T21:39:07.100Z,37.87
2018-03-23T21:41:35.265Z,39.00
2018-03-23T21:44:03.435Z,37.07
2018-03-23T21:46:33.177Z,37.30
2018-03-23T21:49:01.311Z,38.53
2018-03-23T21:51:29.428Z,37.73
2018-03-23T21:53:57.556Z,39.80
2018-03-23T21:56:25.679Z,40.25
2018-03-23T21:58:53.808Z,39.50
2018-03-23T22:01:21.951Z,40.50
2018-03-23T22:03:50.076Z,38.90
2018-03-23T22:06:18.195Z,36.87
2018-03-23T22:08:46.323Z,38.37
2018-03-23T22:11:14.462Z,40.53
2018-03-23T22:13:42.592Z,39.30
2018-03-23T22:16:10.707Z,39.53
2018-03-23T22:18:38.839Z,40.40
2018-03-23T22:21:07.036Z,36.60
2018-03-23T22:23:36.192Z,38.43
2018-03-23T22:26:04.329Z,40.50
2018-03-23T22:28:32.444Z,39.50
2018-03-23T22:31:00.668Z,40.00
2018-03-23T22:33:28.796Z,38.17
2018-03-23T22:35:56.917Z,40.70
2018-03-23T22:38:25.041Z,39.97
2018-03-23T22:40:53.167Z,41.20
2018-03-23T22:43:21.282Z,39.80
2018-03-23T22:45:49.411Z,39.93
2018-03-23T22:48:17.564Z,38.67
2018-03-23T22:50:45.793Z,41.77
2018-03-23T22:53:13.956Z,42.60
2018-03-23T22:55:42.296Z,39.63
2018-03-23T22:58:10.413Z,41.57
2018-03-23T23:00:38.921Z,40.47
2018-03-23T23:03:07.654Z,41.15
2018-03-23T23:05:35.909Z,44.10
2018-03-23T23:08:04.082Z,43.30
2018-03-23T23:10:32.660Z,43.27
2018-03-23T23:13:01.989Z,42.17
2018-03-23T23:15:30.739Z,40.40
2018-03-23T23:18:00.327Z,43.17
2018-03-23T23:20:31.055Z,42.00
2018-03-23T23:22:59.490Z,43.57
2018-03-23T23:25:28.153Z,43.80
2018-03-23T23:27:56.254Z,42.40
2018-03-23T23:30:24.383Z,41.83
2018-03-23T23:32:52.541Z,41.07
2018-03-23T23:35:20.694Z,44.03
2018-03-23T23:37:48.823Z,43.40
2018-03-23T23:40:18.167Z,42.90
2018-03-23T23:42:50.280Z,41.20
2018-03-23T23:45:19.244Z,41.13
2018-03-23T23:47:48.199Z,40.65
2018-03-23T23:50:17.197Z,40.17
2018-03-23T23:52:45.344Z,41.93
2018-03-23T23:55:13.751Z,45.77
2018-03-23T23:57:42.270Z,48.97
